Time;durP1;ratioP1;P1;durP2;ratioP2;P2;SDS_P1;SDS_P2;PMS_P1;PMS_P2;Temp;Humidity;BMP_temperature;BMP_pressure;BME280_temperature;BME280_humidity;BME280_pressure;Samples;Min_cycle;Max_cycle;Signal;HPM_P1;HPM_P2
2021/05/03 00:01:54;;;;;;;3.43;2.10;;;;;;;;;;5085092;28;20185;-54
2021/05/03 00:04:22;;;;;;;9.43;3.23;;;;;;;;;;5085513;28;20289;-54
2021/05/03 00:06:47;;;;;;;4.33;2.57;;;;;;;;;;5079697;28;20192;-54
2021/05/03 00:09:12;;;;;;;5.80;2.83;;;;;;;;;;5086601;28;20181;-52
2021/05/03 00:11:39;;;;;;;4.47;2.60;;;;;;;;;;5089480;28;20551;-54
2021/05/03 00:14:05;;;;;;;3.60;2.83;;;;;;;;;;5085761;28;20181;-54
2021/05/03 00:16:32;;;;;;;5.50;2.80;;;;;;;;;;5071257;28;20207;-54
2021/05/03 00:18:58;;;;;;;5.77;3.60;;;;;;;;;;5088256;28;20596;-52
2021/05/03 00:21:25;;;;;;;3.87;2.93;;;;;;;;;;5086670;28;20169;-53
2021/05/03 00:23:50;;;;;;;4.77;3.00;;;;;;;;;;5071956;28;20199;-55
2021/05/03 00:26:18;;;;;;;3.80;2.60;;;;;;;;;;5067199;28;20724;-56
2021/05/03 00:28:45;;;;;;;3.90;2.87;;;;;;;;;;5085881;28;20318;-55
2021/05/03 00:31:13;;;;;;;4.57;3.00;;;;;;;;;;5071638;28;20268;-55
2021/05/03 00:33:40;;;;;;;3.20;2.90;;;;;;;;;;5073675;28;20254;-54
2021/05/03 00:36:06;;;;;;;5.33;3.10;;;;;;;;;;5085220;28;20211;-54
2021/05/03 00:38:31;;;;;;;6.83;3.40;;;;;;;;;;5082987;28;20180;-52
2021/05/03 00:40:59;;;;;;;6.33;3.47;;;;;;;;;;5071210;28;20617;-56
2021/05/03 00:43:24;;;;;;;4.80;3.83;;;;;;;;;;5069444;28;20258;-49
2021/05/03 00:45:50;;;;;;;5.77;3.50;;;;;;;;;;5090159;28;20326;-54
2021/05/03 00:48:17;;;;;;;7.33;3.70;;;;;;;;;;5088651;28;20180;-53
2021/05/03 00:50:43;;;;;;;7.63;3.60;;;;;;;;;;5086410;28;20176;-55
2021/05/03 00:53:13;;;;;;;5.33;3.20;;;;;;;;;;5089221;28;20189;-55
2021/05/03 00:55:43;;;;;;;3.63;3.07;;;;;;;;;;5090665;28;20226;-55
2021/05/03 00:58:13;;;;;;;4.50;3.67;;;;;;;;;;5085056;28;20187;-54
2021/05/03 01:00:38;;;;;;;4.83;3.30;;;;;;;;;;5088147;28;20177;-54
2021/05/03 01:03:06;;;;;;;6.03;3.77;;;;;;;;;;5083898;28;20212;-55
2021/05/03 01:05:33;;;;;;;6.77;4.20;;;;;;;;;;5084503;28;20188;-55
2021/05/03 01:08:01;;;;;;;4.90;3.90;;;;;;;;;;5087124;28;20707;-53
2021/05/03 01:10:26;;;;;;;6.70;3.83;;;;;;;;;;5088565;28;20256;-55
2021/05/03 01:12:52;;;;;;;5.80;3.43;;;;;;;;;;5088895;28;20206;-53
2021/05/03 01:15:22;;;;;;;4.23;3.00;;;;;;;;;;5084382;28;20185;-54
2021/05/03 01:17:54;;;;;;;6.53;3.60;;;;;;;;;;5085554;28;20191;-53
2021/05/03 01:20:20;;;;;;;6.20;3.60;;;;;;;;;;5083754;28;20189;-55
2021/05/03 01:22:47;;;;;;;5.43;3.50;;;;;;;;;;5069847;28;20205;-54
2021/05/03 01:25:15;;;;;;;5.33;3.40;;;;;;;;;;5087888;28;20299;-54
2021/05/03 01:27:40;;;;;;;7.40;3.37;;;;;;;;;;5087983;28;20200;-54
2021/05/03 01:30:08;;;;;;;5.20;3.00;;;;;;;;;;5088698;28;20181;-54
2021/05/03 01:32:36;;;;;;;5.97;3.53;;;;;;;;;;5086689;28;20193;-54
2021/05/03 01:35:02;;;;;;;6.53;3.23;;;;;;;;;;5089057;28;20180;-55
2021/05/03 01:37:29;;;;;;;5.40;2.93;;;;;;;;;;5087927;28;20188;-54
2021/05/03 01:39:54;;;;;;;5.80;3.23;;;;;;;;;;5088513;28;20193;-53
2021/05/03 01:42:22;;;;;;;7.80;3.10;;;;;;;;;;5086187;28;20809;-53
2021/05/03 01:44:49;;;;;;;6.73;3.00;;;;;;;;;;5083110;28;20199;-52
2021/05/03 01:47:15;;;;;;;7.90;3.30;;;;;;;;;;5089522;28;20622;-54
2021/05/03 01:49:40;;;;;;;4.77;3.40;;;;;;;;;;5067451;28;20260;-53
2021/05/03 01:52:06;;;;;;;5.30;2.80;;;;;;;;;;5084505;28;20188;-54
2021/05/03 01:54:31;;;;;;;7.00;3.30;;;;;;;;;;5088391;28;20181;-52
2021/05/03 01:56:56;;;;;;;7.23;3.27;;;;;;;;;;5081256;28;20218;-54
2021/05/03 01:59:21;;;;;;;8.43;3.50;;;;;;;;;;5085376;28;20656;-54
2021/05/03 02:01:46;;;;;;;5.60;3.23;;;;;;;;;;5079600;28;20878;-52
2021/05/03 02:04:12;;;;;;;4.87;3.00;;;;;;;;;;5081299;28;20219;-51
2021/05/03 02:06:37;;;;;;;4.43;3.07;;;;;;;;;;5082627;28;20208;-55
2021/05/03 02:09:09;;;;;;;4.47;3.10;;;;;;;;;;5082466;28;20728;-54
2021/05/03 02:11:37;;;;;;;5.77;2.90;;;;;;;;;;5080845;28;20177;-54
2021/05/03 02:14:05;;;;;;;4.90;3.10;;;;;;;;;;5084963;28;20201;-54
2021/05/03 02:16:30;;;;;;;4.30;2.87;;;;;;;;;;5068303;28;20213;-53
2021/05/03 02:18:58;;;;;;;4.13;2.83;;;;;;;;;;5066455;28;20178;-53
2021/05/03 02:21:25;;;;;;;4.60;3.27;;;;;;;;;;5080087;28;20195;-53
2021/05/03 02:23:53;;;;;;;6.67;3.20;;;;;;;;;;5085954;28;20587;-54
2021/05/03 02:26:20;;;;;;;4.07;3.00;;;;;;;;;;5079504;28;20207;-53
2021/05/03 02:28:47;;;;;;;4.77;3.40;;;;;;;;;;5083429;28;20599;-54
2021/05/03 02:31:15;;;;;;;4.67;3.27;;;;;;;;;;5076327;28;20845;-54
2021/05/03 02:33:42;;;;;;;4.13;3.00;;;;;;;;;;5086402;28;20187;-54
2021/05/03 02:36:07;;;;;;;6.20;3.50;;;;;;;;;;5086292;28;20246;-54
2021/05/03 02:38:33;;;;;;;5.47;3.47;;;;;;;;;;5083728;28;20177;-53
2021/05/03 02:40:58;;;;;;;4.47;3.47;;;;;;;;;;5082859;28;20208;-54
2021/05/03 02:43:26;;;;;;;7.77;3.47;;;;;;;;;;5080651;28;20573;-54
2021/05/03 02:45:51;;;;;;;6.87;3.23;;;;;;;;;;5083509;28;20188;-53
2021/05/03 02:48:16;;;;;;;5.63;3.00;;;;;;;;;;5085131;28;20168;-54
2021/05/03 02:50:46;;;;;;;6.53;3.40;;;;;;;;;;5068236;28;20196;-55
2021/05/03 02:53:11;;;;;;;4.97;3.20;;;;;;;;;;5077439;28;20572;-54
2021/05/03 02:55:39;;;;;;;5.30;3.13;;;;;;;;;;5078265;28;20180;-55
2021/05/03 02:58:04;;;;;;;4.67;3.20;;;;;;;;;;5086243;28;20173;-53
2021/05/03 03:00:33;;;;;;;4.13;3.10;;;;;;;;;;5082388;28;20203;-52
2021/05/03 03:02:58;;;;;;;4.17;2.83;;;;;;;;;;5078162;28;20232;-54
2021/05/03 03:05:26;;;;;;;4.23;2.80;;;;;;;;;;5083541;28;20652;-53
2021/05/03 03:07:52;;;;;;;3.93;2.80;;;;;;;;;;5084882;28;20207;-55
2021/05/03 03:10:18;;;;;;;5.07;3.57;;;;;;;;;;5083624;28;20184;-55
2021/05/03 03:12:46;;;;;;;5.33;3.23;;;;;;;;;;5080738;28;20189;-55
2021/05/03 03:15:14;;;;;;;6.53;3.33;;;;;;;;;;5081403;28;20200;-52
2021/05/03 03:17:41;;;;;;;4.00;3.43;;;;;;;;;;5085799;28;20196;-56
2021/05/03 03:20:09;;;;;;;3.83;3.03;;;;;;;;;;5084587;28;20202;-52
2021/05/03 03:22:36;;;;;;;5.67;2.90;;;;;;;;;;5079984;28;20247;-56
2021/05/03 03:25:04;;;;;;;4.17;2.97;;;;;;;;;;5081453;28;20192;-54
2021/05/03 03:27:29;;;;;;;8.37;2.93;;;;;;;;;;5081219;28;20222;-55
2021/05/03 03:29:55;;;;;;;3.63;2.83;;;;;;;;;;5080283;28;20271;-53
2021/05/03 03:32:20;;;;;;;8.43;3.00;;;;;;;;;;5079288;28;20184;-53
2021/05/03 03:34:47;;;;;;;3.50;3.00;;;;;;;;;;5080954;28;20192;-54
2021/05/03 03:37:12;;;;;;;6.40;3.13;;;;;;;;;;5062196;28;20704;-53
2021/05/03 03:39:40;;;;;;;5.33;3.13;;;;;;;;;;5082617;28;20197;-54
2021/05/03 03:42:07;;;;;;;4.40;3.40;;;;;;;;;;5084675;28;20266;-55
2021/05/03 03:44:35;;;;;;;4.00;3.60;;;;;;;;;;5069349;28;20229;-54
2021/05/03 03:47:00;;;;;;;5.17;3.57;;;;;;;;;;5081967;28;20258;-55
2021/05/03 03:49:27;;;;;;;4.80;3.13;;;;;;;;;;5084638;28;20256;-54
2021/05/03 03:51:57;;;;;;;4.83;3.30;;;;;;;;;;5086324;28;20188;-53
2021/05/03 03:54:23;;;;;;;3.60;3.00;;;;;;;;;;5087886;28;20779;-53
2021/05/03 03:56:48;;;;;;;5.33;2.63;;;;;;;;;;5070083;28;20239;-55
2021/05/03 03:59:14;;;;;;;7.47;3.40;;;;;;;;;;5082663;28;20204;-53
2021/05/03 04:01:41;;;;;;;7.03;3.13;;;;;;;;;;5086363;28;20181;-54
2021/05/03 04:04:12;;;;;;;5.70;3.10;;;;;;;;;;5086052;28;20370;-54
2021/05/03 04:09:35;;;;;;;6.63;3.50;;;;;;;;;;5080536;28;20531;-52
2021/05/03 04:12:07;;;;;;;5.30;3.00;;;;;;;;;;5082828;28;20181;-53
2021/05/03 04:23:48;;;;;;;4.03;3.10;;;;;;;;;;5086225;28;20230;-53
2021/05/03 04:25:39;;;;;;;9.57;3.30;;;;;;;;;;5072203;28;20905;-53
2021/05/03 04:28:05;;;;;;;4.50;3.30;;;;;;;;;;5077806;28;20668;-53
2021/05/03 04:30:33;;;;;;;4.40;3.10;;;;;;;;;;5066331;28;20184;-52
2021/05/03 04:32:58;;;;;;;5.20;3.10;;;;;;;;;;5086197;28;20188;-53
2021/05/03 04:35:23;;;;;;;4.30;3.30;;;;;;;;;;5084981;28;20185;-54
2021/05/03 04:37:51;;;;;;;5.30;3.10;;;;;;;;;;5081867;28;20197;-54
2021/05/03 04:40:16;;;;;;;5.03;3.17;;;;;;;;;;5080084;28;20195;-54
2021/05/03 04:42:42;;;;;;;5.90;2.90;;;;;;;;;;5084443;28;20201;-54
2021/05/03 04:45:07;;;;;;;5.40;3.13;;;;;;;;;;5085051;28;20200;-53
2021/05/03 04:47:35;;;;;;;4.43;3.53;;;;;;;;;;5071717;28;20196;-54
2021/05/03 04:50:00;;;;;;;3.30;2.77;;;;;;;;;;5081743;28;20249;-54
2021/05/03 04:52:28;;;;;;;7.23;3.47;;;;;;;;;;5085417;28;20648;-54
2021/05/03 04:54:53;;;;;;;4.30;3.10;;;;;;;;;;5086185;28;20215;-52
2021/05/03 04:57:21;;;;;;;4.60;3.23;;;;;;;;;;5080610;28;20266;-53
2021/05/03 04:59:46;;;;;;;4.17;2.97;;;;;;;;;;5081802;28;20225;-53
2021/05/03 05:02:11;;;;;;;4.90;3.50;;;;;;;;;;5085727;28;20308;-54
2021/05/03 05:04:36;;;;;;;6.63;3.97;;;;;;;;;;5069953;28;20274;-54
2021/05/03 05:07:02;;;;;;;6.43;3.23;;;;;;;;;;5080651;28;20197;-54
2021/05/03 05:09:29;;;;;;;5.03;3.17;;;;;;;;;;5082893;28;20173;-54
2021/05/03 05:11:55;;;;;;;4.57;3.07;;;;;;;;;;5076707;28;20185;-54
2021/05/03 05:14:22;;;;;;;5.07;3.20;;;;;;;;;;5085145;28;20178;-55
2021/05/03 05:16:50;;;;;;;3.53;3.20;;;;;;;;;;5084196;28;20563;-54
2021/05/03 05:19:15;;;;;;;3.83;3.20;;;;;;;;;;5087896;28;20219;-53
2021/05/03 05:21:46;;;;;;;5.23;3.67;;;;;;;;;;5063941;28;20205;-54
2021/05/03 05:24:13;;;;;;;7.53;3.77;;;;;;;;;;5083861;28;20226;-54
2021/05/03 05:26:40;;;;;;;6.40;3.63;;;;;;;;;;5068946;28;20216;-52
2021/05/03 05:29:08;;;;;;;5.57;3.33;;;;;;;;;;5068713;28;20199;-53
2021/05/03 05:31:34;;;;;;;2.67;2.47;;;;;;;;;;5083865;28;20196;-53
2021/05/03 05:34:01;;;;;;;4.00;3.20;;;;;;;;;;5084403;28;20189;-54
2021/05/03 05:36:28;;;;;;;4.53;3.60;;;;;;;;;;5082172;28;20197;-52
2021/05/03 05:38:53;;;;;;;5.37;3.47;;;;;;;;;;5079103;28;20616;-53
2021/05/03 05:41:19;;;;;;;4.43;3.03;;;;;;;;;;5083652;28;20258;-52
2021/05/03 05:43:45;;;;;;;5.70;3.13;;;;;;;;;;5085222;28;20259;-52
2021/05/03 05:46:15;;;;;;;4.93;3.17;;;;;;;;;;5082044;28;20206;-53
2021/05/03 05:48:45;;;;;;;3.87;3.13;;;;;;;;;;5084382;28;20656;-54
2021/05/03 05:51:12;;;;;;;5.10;3.07;;;;;;;;;;5084344;28;20198;-54
2021/05/03 05:53:40;;;;;;;5.87;3.30;;;;;;;;;;5082220;28;20317;-53
2021/05/03 05:56:07;;;;;;;5.03;3.23;;;;;;;;;;5085708;28;20208;-54
2021/05/03 05:58:35;;;;;;;7.80;4.50;;;;;;;;;;5082010;28;20250;-53
2021/05/03 06:01:03;;;;;;;5.30;4.17;;;;;;;;;;5086577;22;20232;-53
2021/05/03 06:03:28;;;;;;;5.63;3.27;;;;;;;;;;5063458;28;20320;-53
2021/05/03 06:05:54;;;;;;;4.83;3.40;;;;;;;;;;5063287;28;20264;-52
2021/05/03 06:08:19;;;;;;;7.17;3.73;;;;;;;;;;5058902;28;20180;-52
2021/05/03 06:10:47;;;;;;;4.20;3.50;;;;;;;;;;5062128;28;20568;-52
2021/05/03 06:13:14;;;;;;;4.80;4.30;;;;;;;;;;5060768;28;20192;-52
2021/05/03 06:15:39;;;;;;;5.67;3.50;;;;;;;;;;5060376;28;20181;-52
2021/05/03 06:18:05;;;;;;;3.87;3.40;;;;;;;;;;5059684;28;20189;-53
2021/05/03 06:20:30;;;;;;;4.73;3.27;;;;;;;;;;5052916;28;20230;-50
2021/05/03 06:22:59;;;;;;;6.03;3.20;;;;;;;;;;5060073;28;20210;-53
2021/05/03 06:25:24;;;;;;;4.43;3.03;;;;;;;;;;5040043;28;20216;-55
2021/05/03 06:27:52;;;;;;;4.50;3.30;;;;;;;;;;5070296;28;20279;-54
2021/05/03 06:30:21;;;;;;;3.20;2.90;;;;;;;;;;5062186;28;20176;-51
2021/05/03 06:32:47;;;;;;;4.63;3.50;;;;;;;;;;5063699;28;20216;-53
2021/05/03 06:35:17;;;;;;;5.47;3.30;;;;;;;;;;5063021;28;20203;-53
2021/05/03 06:37:44;;;;;;;5.97;3.87;;;;;;;;;;5066191;28;20212;-53
2021/05/03 06:40:10;;;;;;;7.37;3.63;;;;;;;;;;5068454;28;20208;-54
2021/05/03 06:42:35;;;;;;;13.53;4.27;;;;;;;;;;5065356;28;20689;-54
2021/05/03 06:45:00;;;;;;;5.03;3.57;;;;;;;;;;5066509;28;20544;-54
2021/05/03 06:47:27;;;;;;;5.13;3.27;;;;;;;;;;5056661;28;20174;-53
2021/05/03 06:49:54;;;;;;;8.17;4.10;;;;;;;;;;5063590;28;20177;-52
2021/05/03 06:52:22;;;;;;;4.73;3.50;;;;;;;;;;5059371;28;20208;-51
2021/05/03 06:54:47;;;;;;;5.70;3.93;;;;;;;;;;5058679;28;20192;-52
2021/05/03 06:57:12;;;;;;;4.43;3.63;;;;;;;;;;5058694;28;20212;-54
2021/05/03 06:59:37;;;;;;;8.43;4.00;;;;;;;;;;5043606;28;20708;-53
2021/05/03 07:02:05;;;;;;;6.27;4.27;;;;;;;;;;5059269;28;20218;-53
2021/05/03 07:04:32;;;;;;;5.30;3.80;;;;;;;;;;5059103;28;20177;-53
2021/05/03 07:06:57;;;;;;;4.97;3.40;;;;;;;;;;5055276;28;20217;-53
2021/05/03 07:09:22;;;;;;;5.53;4.00;;;;;;;;;;5056548;28;20834;-52
2021/05/03 07:11:51;;;;;;;4.80;3.33;;;;;;;;;;5057382;28;20197;-53
2021/05/03 07:14:19;;;;;;;6.22;3.60;;;;;;;;;;5064547;28;20216;-52
2021/05/03 07:16:44;;;;;;;5.13;3.78;;;;;;;;;;5061632;28;20668;-52
2021/05/03 07:19:12;;;;;;;4.83;4.03;;;;;;;;;;5065027;28;20174;-51
2021/05/03 07:21:41;;;;;;;4.95;3.90;;;;;;;;;;5060362;28;20254;-53
2021/05/03 07:24:11;;;;;;;4.10;3.30;;;;;;;;;;5064807;28;20673;-53
2021/05/03 07:26:39;;;;;;;4.72;3.70;;;;;;;;;;5051182;28;20192;-53
2021/05/03 07:29:05;;;;;;;4.43;4.03;;;;;;;;;;5069923;28;20189;-51
2021/05/03 07:31:32;;;;;;;3.00;2.70;;;;;;;;;;5065531;28;20306;-52
2021/05/03 07:33:58;;;;;;;2.27;2.07;;;;;;;;;;5067561;28;20224;-53
2021/05/03 07:36:23;;;;;;;3.10;2.27;;;;;;;;;;5064049;28;20790;-52
2021/05/03 07:38:49;;;;;;;4.20;2.03;;;;;;;;;;5067632;28;20218;-50
2021/05/03 07:41:14;;;;;;;4.13;2.50;;;;;;;;;;5066595;28;20213;-49
2021/05/03 07:43:41;;;;;;;2.17;1.80;;;;;;;;;;5046130;28;20209;-53
2021/05/03 07:46:06;;;;;;;2.87;1.87;;;;;;;;;;5060224;28;20174;-53
2021/05/03 07:48:32;;;;;;;2.17;1.97;;;;;;;;;;5060704;28;20173;-49
2021/05/03 07:50:57;;;;;;;2.73;1.63;;;;;;;;;;5065478;28;20233;-53
2021/05/03 07:53:27;;;;;;;5.13;1.60;;;;;;;;;;5066814;28;20185;-51
2021/05/03 07:55:54;;;;;;;3.63;1.73;;;;;;;;;;5064659;28;20319;-53
2021/05/03 07:58:22;;;;;;;4.80;1.80;;;;;;;;;;5041557;28;20646;-53
2021/05/03 08:00:49;;;;;;;4.57;1.63;;;;;;;;;;5061049;28;20304;-53
2021/05/03 08:03:16;;;;;;;2.20;1.43;;;;;;;;;;5060059;28;20224;-53
2021/05/03 08:05:41;;;;;;;3.70;1.63;;;;;;;;;;5058175;28;20258;-52
2021/05/03 08:08:09;;;;;;;2.63;1.80;;;;;;;;;;5055831;28;20223;-51
2021/05/03 08:10:36;;;;;;;2.97;1.70;;;;;;;;;;5057487;28;20185;-51
2021/05/03 08:13:01;;;;;;;3.67;1.70;;;;;;;;;;5040443;28;21841;-53
2021/05/03 08:15:27;;;;;;;2.47;1.60;;;;;;;;;;5057664;28;20181;-54
2021/05/03 08:17:52;;;;;;;1.47;1.37;;;;;;;;;;5057436;28;20264;-51
2021/05/03 08:20:18;;;;;;;2.43;1.23;;;;;;;;;;5056424;28;20265;-49
2021/05/03 08:22:43;;;;;;;4.00;1.40;;;;;;;;;;5040370;28;20236;-51
2021/05/03 08:25:11;;;;;;;2.10;1.53;;;;;;;;;;5057750;28;20193;-51
2021/05/03 08:27:36;;;;;;;2.07;1.33;;;;;;;;;;5040275;28;20189;-53
2021/05/03 08:30:02;;;;;;;3.80;1.57;;;;;;;;;;5060458;28;20538;-52
2021/05/03 08:32:30;;;;;;;3.87;1.40;;;;;;;;;;5060432;28;20862;-51
2021/05/03 08:34:55;;;;;;;3.63;2.10;;;;;;;;;;5042761;28;20215;-50
2021/05/03 08:37:22;;;;;;;2.60;2.10;;;;;;;;;;5061664;28;20197;-52
2021/05/03 08:39:47;;;;;;;2.63;2.43;;;;;;;;;;5059733;28;20184;-53
2021/05/03 08:42:15;;;;;;;1.90;1.60;;;;;;;;;;5044314;28;20213;-51
2021/05/03 08:44:44;;;;;;;3.77;1.40;;;;;;;;;;5061115;28;20178;-51
2021/05/03 08:47:10;;;;;;;2.27;1.70;;;;;;;;;;5065575;28;20544;-52
2021/05/03 08:49:53;;;;;;;4.77;1.60;;;;;;;;;;5068663;28;20211;-50
2021/05/03 08:52:26;;;;;;;3.27;1.87;;;;;;;;;;5064590;28;20213;-53
2021/05/03 08:54:53;;;;;;;2.77;1.83;;;;;;;;;;5068660;28;20188;-51
2021/05/03 08:57:21;;;;;;;4.13;2.47;;;;;;;;;;5064514;28;20278;-51
2021/05/03 08:59:46;;;;;;;3.33;2.50;;;;;;;;;;5069265;28;20193;-51
2021/05/03 09:02:13;;;;;;;3.37;2.87;;;;;;;;;;5069513;28;20224;-52
2021/05/03 09:04:38;;;;;;;3.03;2.50;;;;;;;;;;5068238;28;20270;-50
2021/05/03 09:07:06;;;;;;;4.23;2.67;;;;;;;;;;5059954;28;20225;-52
2021/05/03 09:09:37;;;;;;;4.73;2.77;;;;;;;;;;5065946;28;20258;-55
2021/05/03 09:12:05;;;;;;;4.90;2.93;;;;;;;;;;5070458;28;20235;-53
2021/05/03 09:14:32;;;;;;;3.30;2.50;;;;;;;;;;5067023;28;20258;-51
2021/05/03 09:16:57;;;;;;;4.23;2.90;;;;;;;;;;5051580;28;20756;-51
2021/05/03 09:19:25;;;;;;;4.20;2.57;;;;;;;;;;5067545;28;20196;-53
2021/05/03 09:21:51;;;;;;;3.23;2.70;;;;;;;;;;5065871;28;20205;-53
2021/05/03 09:24:27;;;;;;;4.63;2.63;;;;;;;;;;5046046;28;20205;-53
2021/05/03 09:27:07;;;;;;;3.10;2.80;;;;;;;;;;5061580;28;20204;-52
2021/05/03 09:29:42;;;;;;;3.53;3.23;;;;;;;;;;5060234;28;20181;-54
2021/05/03 09:32:14;;;;;;;3.03;2.77;;;;;;;;;;5061095;28;20265;-53
2021/05/03 09:34:44;;;;;;;3.40;2.90;;;;;;;;;;5043289;28;20181;-52
2021/05/03 09:37:32;;;;;;;3.00;2.70;;;;;;;;;;5059955;28;20169;-52
2021/05/03 09:39:59;;;;;;;3.03;2.80;;;;;;;;;;5059391;28;20251;-52
2021/05/03 09:42:42;;;;;;;4.47;3.30;;;;;;;;;;5060153;28;20232;-53
2021/05/03 09:45:09;;;;;;;4.70;3.03;;;;;;;;;;5042520;28;20251;-52
2021/05/03 09:47:39;;;;;;;4.87;3.07;;;;;;;;;;5059659;28;20279;-51
2021/05/03 09:50:08;;;;;;;3.87;2.80;;;;;;;;;;5058838;28;20174;-52
2021/05/03 09:52:33;;;;;;;4.47;3.30;;;;;;;;;;5060063;28;20204;-51
2021/05/03 09:54:58;;;;;;;2.80;2.60;;;;;;;;;;5059277;28;20197;-53
2021/05/03 09:57:23;;;;;;;3.80;3.00;;;;;;;;;;5041549;28;20278;-52
2021/05/03 09:59:49;;;;;;;4.50;3.27;;;;;;;;;;5059030;28;20197;-51
2021/05/03 10:02:30;;;;;;;3.87;3.30;;;;;;;;;;5060361;28;20220;-53
2021/05/03 10:07:34;;;;;;;5.83;2.83;;;;;;;;;;5059717;28;20268;-52
2021/05/03 10:10:09;;;;;;;3.20;2.90;;;;;;;;;;5059991;28;20185;-53
2021/05/03 10:12:35;;;;;;;4.23;3.20;;;;;;;;;;5060452;28;20197;-54
2021/05/03 10:15:03;;;;;;;3.10;2.73;;;;;;;;;;5060152;28;21886;-52
2021/05/03 10:17:32;;;;;;;4.53;2.90;;;;;;;;;;5060128;28;20533;-51
2021/05/03 10:19:58;;;;;;;3.27;3.00;;;;;;;;;;5060149;28;20260;-54
2021/05/03 10:22:24;;;;;;;2.83;2.63;;;;;;;;;;5060583;28;21958;-51
2021/05/03 10:24:51;;;;;;;3.57;2.97;;;;;;;;;;5060141;28;20173;-50
2021/05/03 10:27:20;;;;;;;3.33;2.90;;;;;;;;;;5059051;28;20252;-51
2021/05/03 10:29:50;;;;;;;3.53;2.37;;;;;;;;;;5061251;28;20713;-53
2021/05/03 10:32:24;;;;;;;3.07;2.77;;;;;;;;;;5057983;28;20723;-51
2021/05/03 10:34:50;;;;;;;3.80;3.23;;;;;;;;;;5059069;28;20188;-53
2021/05/03 10:37:31;;;;;;;3.90;2.90;;;;;;;;;;5057568;28;20219;-52
2021/05/03 10:40:02;;;;;;;3.93;3.10;;;;;;;;;;5058939;28;20181;-51
2021/05/03 10:42:27;;;;;;;5.70;3.43;;;;;;;;;;5059046;28;20272;-51
2021/05/03 10:45:19;;;;;;;4.00;2.63;;;;;;;;;;5059243;28;20201;-52
2021/05/03 10:47:48;;;;;;;4.87;3.23;;;;;;;;;;5056952;28;20332;-53
2021/05/03 10:50:30;;;;;;;3.03;2.30;;;;;;;;;;5059687;28;20665;-53
2021/05/03 10:53:15;;;;;;;3.73;2.90;;;;;;;;;;5059270;28;20197;-52
2021/05/03 10:55:51;;;;;;;4.43;2.97;;;;;;;;;;5059717;28;20181;-54
2021/05/03 10:58:16;;;;;;;4.13;2.67;;;;;;;;;;5066392;28;20184;-51
2021/05/03 11:00:54;;;;;;;4.03;2.60;;;;;;;;;;5066798;28;20221;-53
2021/05/03 11:03:19;;;;;;;5.53;2.80;;;;;;;;;;5062921;28;20208;-52
2021/05/03 11:05:45;;;;;;;5.33;2.77;;;;;;;;;;5063767;28;20186;-51
2021/05/03 11:08:13;;;;;;;4.17;2.77;;;;;;;;;;5066756;28;20178;-52
2021/05/03 11:10:53;;;;;;;4.03;2.67;;;;;;;;;;5048270;28;20189;-51
2021/05/03 11:13:36;;;;;;;3.50;2.63;;;;;;;;;;5052203;28;20181;-51
2021/05/03 11:16:20;;;;;;;3.40;2.70;;;;;;;;;;5060219;28;20185;-51
2021/05/03 11:18:48;;;;;;;3.70;2.87;;;;;;;;;;5061007;28;20234;-52
2021/05/03 11:21:16;;;;;;;3.83;2.70;;;;;;;;;;5047804;28;20193;-49
2021/05/03 11:23:41;;;;;;;4.00;2.60;;;;;;;;;;5059437;28;20204;-52
2021/05/03 11:26:31;;;;;;;3.13;2.70;;;;;;;;;;5056072;28;20185;-52
2021/05/03 11:29:08;;;;;;;3.80;2.30;;;;;;;;;;5041414;28;20189;-51
2021/05/03 11:31:34;;;;;;;3.57;2.57;;;;;;;;;;5057706;28;20223;-53
2021/05/03 11:34:08;;;;;;;2.90;2.40;;;;;;;;;;5058308;28;20173;-50
2021/05/03 11:36:39;;;;;;;3.23;2.63;;;;;;;;;;5057318;28;20261;-53
2021/05/03 11:39:22;;;;;;;3.23;2.80;;;;;;;;;;5056966;28;20717;-51
2021/05/03 11:46:46;;;;;;;5.80;2.50;;;;;;;;;;5058669;28;20185;-50
2021/05/03 11:49:13;;;;;;;2.63;2.00;;;;;;;;;;5040739;28;20259;-53
2021/05/03 11:51:44;;;;;;;3.20;2.13;;;;;;;;;;5058171;28;20696;-50
2021/05/03 11:54:24;;;;;;;3.43;2.30;;;;;;;;;;5059853;28;20835;-53
2021/05/03 11:57:24;;;;;;;4.20;2.47;;;;;;;;;;5056087;28;20181;-51
2021/05/03 12:00:04;;;;;;;2.63;2.43;;;;;;;;;;5008666;28;20665;-48
2021/05/03 12:02:29;;;;;;;3.27;2.27;;;;;;;;;;5058337;28;20247;-52
2021/05/03 12:04:55;;;;;;;2.43;1.83;;;;;;;;;;5062612;28;20201;-50
2021/05/03 12:07:32;;;;;;;3.10;2.00;;;;;;;;;;5042876;28;20670;-52
2021/05/03 12:10:08;;;;;;;5.50;2.33;;;;;;;;;;5059173;28;20166;-54
2021/05/03 12:12:43;;;;;;;2.73;2.00;;;;;;;;;;5061112;28;20227;-53
2021/05/03 12:15:10;;;;;;;2.50;2.27;;;;;;;;;;5061540;28;20220;-53
2021/05/03 12:17:36;;;;;;;3.67;2.37;;;;;;;;;;5058593;28;20194;-52
2021/05/03 12:20:08;;;;;;;3.30;1.90;;;;;;;;;;5061294;28;20187;-49
2021/05/03 12:22:33;;;;;;;4.00;2.30;;;;;;;;;;5060288;28;20208;-50
2021/05/03 12:25:01;;;;;;;3.53;2.50;;;;;;;;;;5061074;28;20189;-50
2021/05/03 12:27:32;;;;;;;2.40;1.93;;;;;;;;;;5060774;28;20182;-51
2021/05/03 12:30:01;;;;;;;2.07;1.87;;;;;;;;;;5062704;28;20181;-51
2021/05/03 12:32:33;;;;;;;4.63;2.57;;;;;;;;;;5061548;28;20696;-51
2021/05/03 12:35:03;;;;;;;3.77;2.33;;;;;;;;;;5061604;28;20228;-50
2021/05/03 12:37:30;;;;;;;3.50;1.83;;;;;;;;;;5060375;28;20235;-54
2021/05/03 12:40:12;;;;;;;5.53;2.20;;;;;;;;;;5062067;28;20174;-51
2021/05/03 12:42:42;;;;;;;2.53;2.10;;;;;;;;;;5060716;28;20206;-53
2021/05/03 12:45:22;;;;;;;2.67;2.13;;;;;;;;;;5060645;28;20176;-53
2021/05/03 12:51:32;;;;;;;3.33;2.33;;;;;;;;;;5061518;28;20863;-53
2021/05/03 12:53:41;;;;;;;2.60;2.40;;;;;;;;;;5058239;28;20250;-54
2021/05/03 12:56:36;;;;;;;2.63;2.20;;;;;;;;;;5060168;28;20267;-51
2021/05/03 13:04:32;;;;;;;3.27;2.97;;;;;;;;;;5060592;28;20256;-53
2021/05/03 13:09:39;;;;;;;4.47;2.20;;;;;;;;;;5058160;28;20211;-52
2021/05/03 13:28:58;;;;;;;4.07;2.27;;;;;;;;;;5059821;28;20183;-49
2021/05/03 13:31:24;;;;;;;2.97;2.23;;;;;;;;;;5043342;28;20189;-51
2021/05/03 13:33:49;;;;;;;2.77;2.30;;;;;;;;;;5060720;28;20254;-51
2021/05/03 13:36:14;;;;;;;2.93;1.93;;;;;;;;;;5042583;28;20813;-51
2021/05/03 13:38:39;;;;;;;3.03;2.13;;;;;;;;;;5059745;28;20255;-49
2021/05/03 13:41:04;;;;;;;4.47;2.10;;;;;;;;;;5059509;28;20247;-55
2021/05/03 13:43:30;;;;;;;4.23;2.43;;;;;;;;;;5061187;28;20220;-50
2021/05/03 13:45:55;;;;;;;3.83;2.40;;;;;;;;;;5059204;28;20268;-51
2021/05/03 13:48:22;;;;;;;2.90;2.00;;;;;;;;;;5041978;28;20620;-51
2021/05/03 13:50:47;;;;;;;3.37;2.53;;;;;;;;;;5041672;28;20180;-51
2021/05/03 13:53:13;;;;;;;4.73;2.70;;;;;;;;;;5060081;28;20185;-51
2021/05/03 13:55:40;;;;;;;6.53;2.17;;;;;;;;;;5059441;28;20596;-52
2021/05/03 13:58:05;;;;;;;2.33;2.03;;;;;;;;;;5042959;28;20312;-52
2021/05/03 14:00:30;;;;;;;2.97;1.90;;;;;;;;;;5061128;28;20184;-52
2021/05/03 14:02:55;;;;;;;5.43;2.60;;;;;;;;;;5059520;28;20201;-51
2021/05/03 14:05:21;;;;;;;2.83;2.10;;;;;;;;;;5058474;28;20221;-51
2021/05/03 14:07:46;;;;;;;3.03;2.20;;;;;;;;;;5058000;28;20298;-52
2021/05/03 14:10:12;;;;;;;2.83;2.17;;;;;;;;;;5059300;28;20184;-54
2021/05/03 14:12:37;;;;;;;3.23;2.40;;;;;;;;;;5059132;28;20276;-51
2021/05/03 14:15:03;;;;;;;6.10;2.50;;;;;;;;;;5058820;28;20777;-52
2021/05/03 14:17:28;;;;;;;2.80;2.47;;;;;;;;;;5043139;28;20193;-51
2021/05/03 14:19:53;;;;;;;4.37;2.50;;;;;;;;;;5058018;28;20181;-51
2021/05/03 14:22:19;;;;;;;3.43;2.10;;;;;;;;;;5058225;28;20189;-52
2021/05/03 14:24:44;;;;;;;5.87;2.10;;;;;;;;;;5059996;28;20220;-52
2021/05/03 14:27:10;;;;;;;3.53;2.93;;;;;;;;;;5042539;28;20189;-54
2021/05/03 14:29:52;;;;;;;3.20;2.27;;;;;;;;;;5058917;28;20204;-49
2021/05/03 14:32:26;;;;;;;2.93;2.00;;;;;;;;;;5060199;28;20638;-49
2021/05/03 14:34:54;;;;;;;2.20;1.93;;;;;;;;;;5059656;28;20270;-51
2021/05/03 14:37:20;;;;;;;2.63;2.03;;;;;;;;;;5057313;28;20850;-50
2021/05/03 14:39:45;;;;;;;1.93;1.83;;;;;;;;;;5056674;28;20174;-50
2021/05/03 14:42:10;;;;;;;7.60;2.10;;;;;;;;;;5059884;28;20557;-50
2021/05/03 14:44:35;;;;;;;2.50;2.00;;;;;;;;;;5060755;28;20243;-51
2021/05/03 14:47:04;;;;;;;2.80;2.00;;;;;;;;;;5059474;28;20199;-50
2021/05/03 14:52:03;;;;;;;2.57;2.17;;;;;;;;;;5060253;28;20184;-50
2021/05/03 14:54:33;;;;;;;3.83;2.20;;;;;;;;;;5060793;28;20203;-51
2021/05/03 14:57:00;;;;;;;2.30;2.10;;;;;;;;;;5058257;28;20200;-52
2021/05/03 14:59:26;;;;;;;3.10;1.87;;;;;;;;;;5058906;28;20795;-51
2021/05/03 15:01:53;;;;;;;2.70;1.57;;;;;;;;;;5060427;28;20216;-51
2021/05/03 15:04:19;;;;;;;2.67;2.10;;;;;;;;;;5059478;28;20590;-51
2021/05/03 15:06:45;;;;;;;2.73;1.93;;;;;;;;;;5058691;28;20199;-50
2021/05/03 15:09:18;;;;;;;1.87;1.13;;;;;;;;;;5059182;28;20256;-50
2021/05/03 15:11:45;;;;;;;2.27;1.70;;;;;;;;;;5059457;28;20709;-51
2021/05/03 15:14:14;;;;;;;1.70;1.50;;;;;;;;;;5059980;28;20663;-51
2021/05/03 15:16:51;;;;;;;1.43;1.33;;;;;;;;;;5058043;28;20190;-52
2021/05/03 15:21:44;;;;;;;3.00;1.60;;;;;;;;;;5059088;28;20255;-49
2021/05/03 15:24:12;;;;;;;2.10;1.70;;;;;;;;;;5060833;28;20212;-49
2021/05/03 15:26:38;;;;;;;2.03;1.23;;;;;;;;;;5041988;28;20200;-51
2021/05/03 15:31:50;;;;;;;4.13;2.20;;;;;;;;;;5060316;28;20173;-49
2021/05/03 15:34:16;;;;;;;1.37;1.27;;;;;;;;;;5060285;28;20270;-51
2021/05/03 15:36:41;;;;;;;1.50;1.40;;;;;;;;;;5064591;28;20193;-50
2021/05/03 15:39:07;;;;;;;2.77;1.70;;;;;;;;;;5069699;28;20227;-50
2021/05/03 15:41:33;;;;;;;1.47;1.37;;;;;;;;;;5069646;28;20197;-50
2021/05/03 15:44:00;;;;;;;3.07;2.00;;;;;;;;;;5062484;28;20222;-49